createdAt,value
2018-08-06T00:00:15.069Z,23.39
2018-08-06T00:02:43.422Z,23.35
2018-08-06T00:05:12.311Z,23.34
2018-08-06T00:07:40.745Z,23.34
2018-08-06T00:10:14.915Z,23.36
2018-08-06T00:12:44.035Z,23.38
2018-08-06T00:15:13.517Z,23.40
2018-08-06T00:17:42.239Z,23.40
2018-08-06T00:20:11.579Z,23.39
2018-08-06T00:22:40.568Z,23.37
2018-08-06T00:25:10.394Z,23.34
2018-08-06T00:27:39.115Z,23.33
2018-08-06T00:30:09.545Z,23.31
2018-08-06T00:32:38.639Z,23.31
2018-08-06T00:35:07.512Z,23.27
2018-08-06T00:37:36.202Z,23.25
2018-08-06T00:40:05.397Z,23.26
2018-08-06T00:42:34.862Z,23.25
2018-08-06T00:45:03.527Z,23.21
2018-08-06T00:47:31.946Z,23.15
2018-08-06T00:50:01.390Z,23.12
2018-08-06T00:52:29.884Z,23.11
2018-08-06T00:54:59.127Z,23.08
2018-08-06T00:57:27.679Z,23.05
2018-08-06T00:59:56.175Z,23.01
2018-08-06T01:02:24.663Z,23.00
2018-08-06T01:04:53.229Z,22.93
2018-08-06T01:07:21.901Z,22.87
2018-08-06T01:09:50.955Z,22.85
2018-08-06T01:12:19.320Z,22.83
2018-08-06T01:14:47.877Z,22.81
2018-08-06T01:17:16.391Z,22.83
2018-08-06T01:19:44.958Z,22.85
2018-08-06T01:22:13.531Z,22.84
2018-08-06T01:24:41.983Z,22.78
2018-08-06T01:27:10.475Z,22.76
2018-08-06T01:29:39.006Z,22.74
2018-08-06T01:32:07.920Z,22.67
2018-08-06T01:34:41.378Z,22.60
2018-08-06T01:37:09.909Z,22.54
2018-08-06T01:39:38.329Z,22.48
2018-08-06T01:42:06.847Z,22.49
2018-08-06T01:44:35.451Z,22.48
2018-08-06T01:47:03.910Z,22.44
2018-08-06T01:49:32.370Z,22.42
2018-08-06T01:52:00.845Z,22.41
2018-08-06T01:54:29.301Z,22.42
2018-08-06T01:56:57.779Z,22.38
2018-08-06T01:59:26.537Z,22.37
2018-08-06T02:01:55.024Z,22.34
2018-08-06T02:04:23.439Z,22.31
2018-08-06T02:06:52.150Z,22.29
2018-08-06T02:09:21.753Z,22.30
2018-08-06T02:11:50.373Z,22.34
2018-08-06T02:14:18.901Z,22.34
2018-08-06T02:16:47.513Z,22.31
2018-08-06T02:19:16.793Z,22.30
2018-08-06T02:21:45.475Z,22.24
2018-08-06T02:24:14.165Z,22.18
2018-08-06T02:26:42.809Z,22.13
2018-08-06T02:29:12.059Z,22.06
2018-08-06T02:31:40.757Z,22.01
2018-08-06T02:34:09.543Z,21.92
2018-08-06T02:36:38.231Z,21.83
2018-08-06T02:39:09.300Z,21.73
2018-08-06T02:41:38.195Z,21.69
2018-08-06T02:44:07.015Z,21.72
2018-08-06T02:46:35.896Z,21.76
2018-08-06T02:49:04.595Z,21.71
2018-08-06T02:51:33.365Z,21.67
2018-08-06T02:54:02.169Z,21.62
2018-08-06T02:56:31.365Z,21.57
2018-08-06T02:59:00.801Z,21.49
2018-08-06T03:01:30.501Z,21.46
2018-08-06T03:03:59.207Z,21.41
2018-08-06T03:06:27.849Z,21.34
2018-08-06T03:08:56.627Z,21.33
2018-08-06T03:11:25.061Z,21.32
2018-08-06T03:13:53.856Z,21.30
2018-08-06T03:16:22.505Z,21.22
2018-08-06T03:18:51.237Z,21.18
2018-08-06T03:21:19.673Z,21.07
2018-08-06T03:23:48.117Z,20.99
2018-08-06T03:26:16.645Z,20.95
2018-08-06T03:28:45.323Z,21.03
2018-08-06T03:31:13.799Z,21.12
2018-08-06T03:33:42.589Z,21.25
2018-08-06T03:36:16.265Z,21.33
2018-08-06T03:38:44.742Z,21.35
2018-08-06T03:41:13.219Z,21.34
2018-08-06T03:43:41.637Z,21.32
2018-08-06T03:46:10.347Z,21.33
2018-08-06T03:48:38.901Z,21.33
2018-08-06T03:51:07.652Z,21.33
2018-08-06T03:53:36.547Z,21.33
2018-08-06T03:56:05.213Z,21.33
2018-08-06T03:58:33.637Z,21.34
2018-08-06T04:01:02.179Z,21.37
2018-08-06T04:03:30.580Z,21.40
2018-08-06T04:05:59.235Z,21.43
2018-08-06T04:08:27.768Z,21.47
2018-08-06T04:10:56.347Z,21.53
2018-08-06T04:13:24.832Z,21.54
2018-08-06T04:15:53.335Z,21.51
2018-08-06T04:18:21.799Z,21.49
2018-08-06T04:20:50.264Z,21.47
2018-08-06T04:23:18.671Z,21.45
2018-08-06T04:25:47.344Z,21.43
2018-08-06T04:28:16.811Z,21.42
2018-08-06T04:30:45.281Z,21.40
2018-08-06T04:33:13.840Z,21.42
2018-08-06T04:35:42.593Z,21.42
2018-08-06T04:38:11.436Z,21.38
2018-08-06T04:40:39.921Z,21.36
2018-08-06T04:43:08.982Z,21.35
2018-08-06T04:45:37.524Z,21.34
2018-08-06T04:48:06.043Z,21.34
2018-08-06T04:50:34.513Z,21.37
2018-08-06T04:53:02.899Z,21.37
2018-08-06T04:55:31.270Z,21.38
2018-08-06T04:58:00.741Z,21.40
2018-08-06T05:00:29.997Z,21.42
2018-08-06T05:02:58.557Z,21.42
2018-08-06T05:05:27.033Z,21.47
2018-08-06T05:07:55.563Z,21.50
2018-08-06T05:10:23.997Z,21.49
2018-08-06T05:12:52.445Z,21.48
2018-08-06T05:15:21.047Z,21.48
2018-08-06T05:17:49.619Z,21.48
2018-08-06T05:20:18.145Z,21.47
2018-08-06T05:22:46.815Z,21.46
2018-08-06T05:25:15.399Z,21.50
2018-08-06T05:27:44.097Z,21.42
2018-08-06T05:30:13.687Z,21.43
2018-08-06T05:32:42.183Z,21.45
2018-08-06T05:35:10.840Z,21.51
2018-08-06T05:37:39.279Z,21.55
2018-08-06T05:40:08.828Z,21.58
2018-08-06T05:42:37.822Z,21.64
2018-08-06T05:45:06.961Z,21.66
2018-08-06T05:47:35.659Z,21.72
2018-08-06T05:50:05.119Z,21.79
2018-08-06T05:52:34.037Z,21.80
2018-08-06T05:55:03.224Z,21.77
2018-08-06T05:57:31.671Z,21.77
2018-08-06T06:00:01.971Z,21.78
2018-08-06T06:02:30.442Z,21.78
2018-08-06T06:04:59.243Z,21.81
2018-08-06T06:07:28.113Z,21.85
2018-08-06T06:09:56.549Z,21.82
2018-08-06T06:12:25.405Z,21.73
2018-08-06T06:14:54.651Z,21.78
2018-08-06T06:17:24.490Z,21.79
2018-08-06T06:19:53.004Z,21.84
2018-08-06T06:22:21.429Z,21.89
2018-08-06T06:24:50.915Z,21.93
2018-08-06T06:27:19.498Z,21.93
2018-08-06T06:29:48.249Z,21.94
2018-08-06T06:32:19.426Z,21.96
2018-08-06T06:34:52.404Z,22.02
2018-08-06T06:37:23.527Z,22.06
2018-08-06T06:39:53.335Z,22.09
2018-08-06T06:42:23.513Z,22.11
2018-08-06T06:44:51.987Z,22.18
2018-08-06T06:47:20.677Z,22.17
2018-08-06T06:49:49.118Z,22.21
2018-08-06T06:52:19.687Z,22.20
2018-08-06T06:54:49.033Z,22.19
2018-08-06T06:57:17.535Z,22.21
2018-08-06T06:59:49.188Z,22.27
2018-08-06T07:02:17.769Z,22.31
2018-08-06T07:04:46.287Z,22.30
2018-08-06T07:07:15.248Z,22.32
2018-08-06T07:09:46.697Z,22.29
2018-08-06T07:12:16.655Z,22.29
2018-08-06T07:14:45.899Z,22.30
2018-08-06T07:17:15.393Z,22.32
2018-08-06T07:19:43.960Z,22.35
2018-08-06T07:22:12.453Z,22.36
2018-08-06T07:24:41.751Z,22.44
2018-08-06T07:27:11.773Z,22.47
2018-08-06T07:29:41.423Z,22.55
2018-08-06T07:32:11.434Z,22.55
2018-08-06T07:34:40.377Z,22.55
2018-08-06T07:37:09.075Z,22.61
2018-08-06T07:39:37.553Z,22.63
2018-08-06T07:42:06.765Z,22.67
2018-08-06T07:44:35.547Z,22.73
2018-08-06T07:47:05.092Z,22.80
2018-08-06T07:49:34.411Z,22.88
2018-08-06T07:52:03.453Z,22.96
2018-08-06T07:54:32.174Z,23.00
2018-08-06T07:57:01.134Z,23.02
2018-08-06T07:59:29.723Z,23.05
2018-08-06T08:01:58.184Z,23.10
2018-08-06T08:04:26.811Z,23.15
2018-08-06T08:06:55.296Z,23.19
2018-08-06T08:09:23.936Z,23.25
2018-08-06T08:11:52.369Z,23.30
2018-08-06T08:14:22.371Z,23.34
2018-08-06T08:16:51.121Z,23.41
2018-08-06T08:19:20.288Z,23.47
2018-08-06T08:21:48.942Z,23.47
2018-08-06T08:24:17.647Z,23.49
2018-08-06T08:26:46.418Z,23.54
2018-08-06T08:29:15.029Z,23.57
2018-08-06T08:31:43.463Z,23.56
2018-08-06T08:34:12.027Z,23.56
2018-08-06T08:36:40.500Z,23.64
2018-08-06T08:39:10.828Z,23.72
2018-08-06T08:41:39.335Z,23.80
2018-08-06T08:44:07.924Z,23.82
2018-08-06T08:46:37.191Z,23.88
2018-08-06T08:49:06.092Z,23.91
2018-08-06T08:51:37.039Z,23.97
2018-08-06T08:54:06.353Z,24.01
2018-08-06T08:56:35.032Z,23.98
2018-08-06T08:59:03.849Z,24.11
2018-08-06T09:01:32.604Z,24.17
2018-08-06T09:04:01.600Z,24.26
2018-08-06T09:06:30.620Z,24.35
2018-08-06T09:08:59.476Z,24.33
2018-08-06T09:11:29.042Z,24.34
2018-08-06T09:13:58.319Z,24.40
2018-08-06T09:16:26.970Z,24.50
2018-08-06T09:18:56.078Z,24.61
2018-08-06T09:21:25.617Z,24.68
2018-08-06T09:23:54.881Z,24.78
2018-08-06T09:26:24.720Z,24.87
2018-08-06T09:28:55.015Z,24.98
2018-08-06T09:31:23.494Z,25.10
2018-08-06T09:33:52.122Z,25.22
2018-08-06T09:36:22.915Z,25.30
2018-08-06T09:38:52.645Z,25.31
2018-08-06T09:41:21.851Z,25.32
2018-08-06T09:43:50.931Z,25.35
2018-08-06T09:46:21.141Z,25.45
2018-08-06T09:48:50.343Z,25.52
2018-08-06T09:51:19.542Z,25.57
2018-08-06T09:53:49.531Z,25.71
2018-08-06T09:56:18.615Z,25.84
2018-08-06T09:58:49.486Z,25.94
2018-08-06T10:01:24.383Z,26.06
2018-08-06T10:03:56.059Z,26.19
2018-08-06T10:06:36.890Z,26.31
2018-08-06T10:09:10.047Z,26.43
2018-08-06T10:11:40.983Z,26.48
2018-08-06T10:14:12.128Z,26.53
2018-08-06T10:16:41.270Z,26.66
2018-08-06T10:19:10.633Z,26.75
2018-08-06T10:21:39.923Z,26.85
2018-08-06T10:24:09.405Z,26.99
2018-08-06T10:26:38.443Z,27.09
2018-08-06T10:29:08.049Z,27.17
2018-08-06T10:31:36.773Z,27.22
2018-08-06T10:34:05.529Z,27.35
2018-08-06T10:36:34.491Z,27.51
2018-08-06T10:39:05.245Z,27.50
2018-08-06T10:41:33.863Z,27.57
2018-08-06T10:44:02.513Z,27.67
2018-08-06T10:46:31.083Z,27.74
2018-08-06T10:48:59.609Z,27.78
2018-08-06T10:51:28.465Z,27.87
2018-08-06T10:53:57.604Z,28.02
2018-08-06T10:56:27.587Z,28.16
2018-08-06T10:58:57.511Z,28.37
2018-08-06T11:01:27.235Z,28.51
2018-08-06T11:03:56.146Z,28.57
2018-08-06T11:06:24.713Z,28.63
2018-08-06T11:08:53.283Z,28.68
2018-08-06T11:11:21.737Z,28.77
2018-08-06T11:13:50.595Z,28.98
2018-08-06T11:16:19.555Z,29.07
2018-08-06T11:19:07.335Z,29.30
2018-08-06T11:21:36.259Z,29.55
2018-08-06T11:24:05.585Z,29.73
2018-08-06T11:26:34.777Z,30.01
2018-08-06T11:34:19.446Z,30.29
2018-08-06T11:36:49.041Z,30.76
2018-08-06T11:39:17.713Z,31.13
2018-08-06T11:41:47.503Z,30.82
2018-08-06T11:44:16.703Z,30.95
2018-08-06T11:46:45.580Z,31.02
2018-08-06T11:49:14.110Z,31.15
2018-08-06T11:51:42.623Z,31.38
2018-08-06T11:54:23.155Z,31.49
2018-08-06T11:56:51.894Z,31.67
2018-08-06T11:59:21.497Z,31.78
2018-08-06T12:01:50.003Z,31.99
2018-08-06T12:04:19.019Z,31.88
2018-08-06T12:06:47.549Z,32.13
2018-08-06T12:09:16.036Z,32.36
2018-08-06T12:11:45.050Z,32.45
2018-08-06T12:14:13.871Z,32.44
2018-08-06T12:16:42.639Z,32.09
2018-08-06T12:19:11.375Z,32.08
2018-08-06T12:21:40.119Z,32.49
2018-08-06T12:24:10.247Z,32.82
2018-08-06T12:26:39.309Z,32.97
2018-08-06T12:29:08.301Z,32.98
2018-08-06T12:31:37.903Z,33.23
2018-08-06T12:34:06.913Z,33.02
2018-08-06T12:36:36.775Z,33.06
2018-08-06T12:39:13.625Z,33.18
2018-08-06T12:41:42.551Z,33.14
2018-08-06T12:44:13.440Z,33.49
2018-08-06T12:46:42.765Z,33.86
2018-08-06T12:49:12.039Z,34.04
2018-08-06T12:51:41.143Z,34.13
2018-08-06T12:54:11.517Z,34.17
2018-08-06T12:56:40.569Z,34.34
2018-08-06T12:59:09.126Z,34.46
2018-08-06T13:01:37.712Z,34.10
2018-08-06T13:04:06.250Z,34.35
2018-08-06T13:06:34.738Z,34.10
2018-08-06T13:09:03.650Z,33.87
2018-08-06T13:11:32.338Z,33.69
2018-08-06T13:14:00.823Z,33.40
2018-08-06T13:16:29.294Z,33.33
2018-08-06T13:18:57.741Z,33.33
2018-08-06T13:21:26.312Z,33.44
2018-08-06T13:23:54.991Z,33.24
2018-08-06T13:26:23.644Z,33.50
2018-08-06T13:28:52.244Z,33.75
2018-08-06T13:31:20.811Z,33.79
2018-08-06T13:33:50.284Z,33.72
2018-08-06T13:36:19.700Z,33.72
2018-08-06T13:38:48.540Z,33.58
2018-08-06T13:41:18.192Z,33.51
2018-08-06T13:43:47.625Z,33.64
2018-08-06T13:46:16.267Z,33.77
2018-08-06T13:48:44.866Z,33.82
2018-08-06T13:51:13.497Z,33.82
2018-08-06T13:53:43.094Z,33.54
2018-08-06T13:56:11.759Z,33.61
2018-08-06T13:58:40.427Z,33.43
2018-08-06T14:01:09.099Z,33.50
2018-08-06T14:03:37.588Z,33.71
2018-08-06T14:06:06.174Z,33.72
2018-08-06T14:08:34.887Z,33.69
2018-08-06T14:11:03.528Z,33.59
2018-08-06T14:13:32.178Z,33.50
2018-08-06T14:16:00.726Z,33.55
2018-08-06T14:18:29.361Z,33.54
2018-08-06T14:20:58.007Z,33.49
2018-08-06T14:23:26.503Z,33.60
2018-08-06T14:25:54.972Z,33.66
2018-08-06T14:28:23.427Z,33.38
2018-08-06T14:30:51.995Z,33.35
2018-08-06T14:33:20.713Z,33.34
2018-08-06T14:35:49.319Z,33.30
2018-08-06T14:38:17.834Z,33.28
2018-08-06T14:40:46.373Z,33.27
2018-08-06T14:43:14.838Z,33.27
2018-08-06T14:45:43.374Z,33.27
2018-08-06T14:48:12.487Z,33.19
2018-08-06T14:50:41.167Z,33.22
2018-08-06T14:53:09.675Z,33.11
2018-08-06T14:55:38.121Z,33.09
2018-08-06T14:58:06.671Z,33.14
2018-08-06T15:00:35.293Z,33.21
2018-08-06T15:03:03.693Z,33.09
2018-08-06T15:05:32.276Z,32.98
2018-08-06T15:08:00.851Z,32.73
2018-08-06T15:10:29.447Z,32.54
2018-08-06T15:12:57.963Z,32.34
2018-08-06T15:15:31.615Z,31.98
2018-08-06T15:18:00.090Z,31.84
2018-08-06T15:20:28.685Z,31.64
2018-08-06T15:22:58.493Z,31.53
2018-08-06T15:25:27.315Z,31.36
2018-08-06T15:27:55.915Z,31.23
2018-08-06T15:30:24.401Z,31.07
2018-08-06T15:32:52.831Z,31.04
2018-08-06T15:35:26.383Z,30.92
2018-08-06T15:37:55.007Z,30.88
2018-08-06T15:40:23.918Z,30.84
2018-08-06T15:42:52.853Z,30.85
2018-08-06T15:45:21.489Z,30.80
2018-08-06T15:47:49.957Z,30.74
2018-08-06T15:50:20.189Z,30.70
2018-08-06T15:52:48.969Z,30.61
2018-08-06T15:55:17.714Z,30.59
2018-08-06T15:57:51.907Z,30.52
2018-08-06T16:00:25.298Z,30.57
2018-08-06T16:03:10.464Z,30.47
2018-08-06T16:08:35.307Z,30.37
2018-08-06T16:11:12.627Z,30.33
2018-08-06T16:13:42.362Z,30.28
2018-08-06T16:16:13.958Z,30.26
2018-08-06T16:18:44.815Z,30.25
2018-08-06T16:21:16.797Z,30.21
2018-08-06T16:23:53.559Z,30.21
2018-08-06T16:29:37.805Z,30.27
2018-08-06T16:32:07.048Z,30.24
2018-08-06T16:37:42.764Z,30.20
2018-08-06T16:40:12.661Z,30.19
2018-08-06T16:42:41.515Z,30.16
2018-08-06T16:45:11.066Z,30.16
2018-08-06T16:47:40.193Z,30.16
2018-08-06T16:50:10.707Z,30.21
2018-08-06T16:52:42.889Z,30.14
2018-08-06T16:55:12.518Z,30.09
2018-08-06T16:57:42.653Z,30.04
2018-08-06T17:00:14.567Z,29.96
2018-08-06T17:02:44.052Z,29.92
2018-08-06T17:05:14.055Z,29.87
2018-08-06T17:07:44.259Z,29.85
2018-08-06T17:10:16.820Z,29.81
2018-08-06T17:12:46.379Z,29.75
2018-08-06T17:15:16.587Z,29.74
2018-08-06T17:17:46.651Z,29.71
2018-08-06T17:20:17.449Z,29.72
2018-08-06T17:22:48.703Z,29.72
2018-08-06T17:25:17.754Z,29.72
2018-08-06T17:27:46.995Z,29.71
2018-08-06T17:30:16.453Z,29.63
2018-08-06T17:32:45.132Z,29.61
2018-08-06T17:35:14.520Z,29.58
2018-08-06T17:37:43.532Z,29.63
2018-08-06T17:40:17.035Z,29.60
2018-08-06T17:42:45.623Z,29.58
2018-08-06T17:45:17.106Z,29.55
2018-08-06T17:47:46.104Z,29.53
2018-08-06T17:50:16.241Z,29.54
2018-08-06T17:52:45.854Z,29.58
2018-08-06T17:55:14.872Z,29.61
2018-08-06T17:57:43.580Z,29.62
2018-08-06T18:00:12.663Z,29.65
2018-08-06T18:02:41.336Z,29.65
2018-08-06T18:05:12.164Z,29.64
2018-08-06T18:07:40.982Z,29.66
2018-08-06T18:10:10.906Z,29.68
2018-08-06T18:12:39.621Z,29.65
2018-08-06T18:15:08.266Z,29.65
2018-08-06T18:17:37.332Z,29.68
2018-08-06T18:20:09.626Z,29.65
2018-08-06T18:22:38.166Z,29.65
2018-08-06T18:25:09.000Z,29.63
2018-08-06T18:27:37.651Z,29.62
2018-08-06T18:30:09.207Z,29.60
2018-08-06T18:35:20.860Z,29.49
2018-08-06T18:37:49.405Z,29.41
2018-08-06T18:40:19.215Z,29.40
2018-08-06T18:42:47.757Z,29.33
2018-08-06T18:45:18.026Z,29.32
2018-08-06T18:47:47.544Z,29.33
2018-08-06T18:50:16.800Z,29.34
2018-08-06T18:52:46.242Z,29.28
2018-08-06T18:55:15.624Z,29.27
2018-08-06T18:57:44.725Z,29.26
2018-08-06T19:00:16.164Z,29.20
2018-08-06T19:02:45.193Z,29.13
2018-08-06T19:05:13.751Z,29.06
2018-08-06T19:07:42.565Z,28.98
2018-08-06T19:10:11.631Z,28.96
2018-08-06T19:12:45.828Z,28.90
2018-08-06T19:15:15.456Z,28.90
2018-08-06T19:17:49.861Z,28.83
2018-08-06T19:20:19.475Z,28.78
2018-08-06T19:22:49.002Z,28.79
2018-08-06T19:25:23.215Z,28.77
2018-08-06T19:27:52.735Z,28.77
2018-08-06T19:30:26.508Z,28.77
2018-08-06T19:32:55.995Z,28.74
2018-08-06T19:35:25.183Z,28.72
2018-08-06T19:37:54.312Z,28.65
2018-08-06T19:40:23.539Z,28.61
2018-08-06T19:42:57.589Z,28.57
2018-08-06T19:45:27.013Z,28.54
2018-08-06T19:47:56.188Z,28.53
2018-08-06T19:50:30.233Z,28.52
2018-08-06T19:52:59.564Z,28.52
2018-08-06T19:55:33.450Z,28.52
2018-08-06T19:58:02.318Z,28.50
2018-08-06T20:00:31.337Z,28.48
2018-08-06T20:03:00.997Z,28.48
2018-08-06T20:05:34.863Z,28.45
2018-08-06T20:08:04.858Z,28.43
2018-08-06T20:10:33.594Z,28.40
2018-08-06T20:13:02.438Z,28.40
2018-08-06T20:15:31.136Z,28.37
2018-08-06T20:17:59.748Z,28.36
2018-08-06T20:20:28.188Z,28.33
2018-08-06T20:22:57.712Z,28.33
2018-08-06T20:25:26.268Z,28.32
2018-08-06T20:27:54.848Z,28.32
2018-08-06T20:30:24.366Z,28.32
2018-08-06T20:32:53.023Z,28.28
2018-08-06T20:35:21.660Z,28.27
2018-08-06T20:37:50.258Z,28.26
2018-08-06T20:40:18.784Z,28.25
2018-08-06T20:42:47.365Z,28.22
2018-08-06T20:45:19.339Z,28.19
2018-08-06T20:47:48.134Z,28.18
2018-08-06T20:50:17.968Z,28.12
2018-08-06T20:52:47.346Z,28.10
2018-08-06T20:55:16.198Z,28.08
2018-08-06T20:57:44.898Z,28.07
2018-08-06T21:00:17.786Z,28.05
2018-08-06T21:02:47.863Z,28.03
2018-08-06T21:05:16.350Z,28.03
2018-08-06T21:07:44.945Z,28.02
2018-08-06T21:10:14.613Z,27.98
2018-08-06T21:12:43.290Z,27.96
2018-08-06T21:15:13.084Z,27.91
2018-08-06T21:17:42.170Z,27.88
2018-08-06T21:20:12.099Z,27.87
2018-08-06T21:22:42.744Z,27.83
2018-08-06T21:25:11.948Z,27.82
2018-08-06T21:27:41.512Z,27.80
2018-08-06T21:30:15.227Z,27.77
2018-08-06T21:32:50.416Z,27.74
2018-08-06T21:35:19.792Z,27.72
2018-08-06T21:37:49.680Z,27.70
2018-08-06T21:40:20.285Z,27.66
2018-08-06T21:42:49.303Z,27.65
2018-08-06T21:45:17.965Z,27.61
2018-08-06T21:47:46.480Z,27.54
2018-08-06T21:50:15.672Z,27.51
2018-08-06T21:52:44.438Z,27.49
2018-08-06T21:55:13.005Z,27.48
2018-08-06T21:57:41.480Z,27.42
2018-08-06T22:00:11.839Z,27.35
2018-08-06T22:02:40.429Z,27.31
2018-08-06T22:05:08.998Z,27.25
2018-08-06T22:07:37.477Z,27.21
2018-08-06T22:10:06.069Z,27.21
2018-08-06T22:12:34.533Z,27.18
2018-08-06T22:15:03.127Z,27.15
2018-08-06T22:17:31.656Z,27.11
2018-08-06T22:20:00.439Z,27.10
2018-08-06T22:22:28.918Z,27.06
2018-08-06T22:24:57.386Z,27.04
2018-08-06T22:27:25.886Z,27.02
2018-08-06T22:29:54.446Z,26.99
2018-08-06T22:32:22.987Z,26.99
2018-08-06T22:34:51.719Z,26.94
2018-08-06T22:37:20.196Z,26.91
2018-08-06T22:39:49.116Z,26.89
2018-08-06T22:42:17.648Z,26.87
2018-08-06T22:44:48.132Z,26.86
2018-08-06T22:47:16.598Z,26.83
2018-08-06T22:49:45.114Z,26.80
2018-08-06T22:52:13.620Z,26.77
2018-08-06T22:54:42.286Z,26.76
2018-08-06T22:57:10.712Z,26.71
2018-08-06T22:59:39.238Z,26.66
2018-08-06T23:02:07.771Z,26.62
2018-08-06T23:04:36.442Z,26.55
2018-08-06T23:07:04.972Z,26.50
2018-08-06T23:09:33.478Z,26.49
2018-08-06T23:12:01.954Z,26.45
2018-08-06T23:14:30.687Z,26.42
2018-08-06T23:16:59.162Z,26.39
2018-08-06T23:19:27.862Z,26.35
2018-08-06T23:21:56.588Z,26.30
2018-08-06T23:24:25.131Z,26.29
2018-08-06T23:26:53.580Z,26.23
2018-08-06T23:29:22.097Z,26.18
2018-08-06T23:31:50.546Z,26.12
2018-08-06T23:34:18.970Z,26.07
2018-08-06T23:36:47.407Z,26.04
2018-08-06T23:39:16.000Z,26.03
2018-08-06T23:41:44.540Z,26.01
2018-08-06T23:44:12.979Z,26.00
2018-08-06T23:46:41.500Z,25.95
2018-08-06T23:49:10.046Z,25.90
2018-08-06T23:51:38.600Z,25.90
2018-08-06T23:54:07.194Z,25.86
2018-08-06T23:56:35.714Z,25.83
2018-08-06T23:59:04.462Z,25.79
